Kathryn, ND

8:33 AM CDT on October 25, 2014 (GMT -0500)
Valley City | Change Station
CLOSE
Current Station
Airport
Location: Valley City,
Elevation: 1401 ft
Nearby Weather Stations

Elev 1401 ft 46.94 °N, 98.02 °W | Updated 18 minutes ago

Mostly Cloudy
Mostly Cloudy
39 °F
Feels Like 32 °F
N
12
Wind Variable Wind from WNW

Today
High -- | Low -- °F
--% Chance of Precip.
Yesterday
High -- | Low -- °F
Precip. -- in
8:03 AM 6:27 PM
Waxing Crescent, 3% visible
Pressure 30.09 in
Visibility 10.0 miles
Clouds Mostly Cloudy 12000 ft
Windchill 32 °F
Dew Point 34 °F
Humidity 81%
Rainfall 0.00 in
Snow Depth Not available.
UV 0 out of 12
Pollen 1.60 out of 12
Air Quality Not available.
Flu Activity Sporadic
METAR KBAC 251315Z AUTO 30010KT 10SM BKN120 04/01 A3009 RMK AO2

More Conditions Fewer Conditions

Pressure 30.09 in
Visibility 10.0 miles
Clouds Mostly Cloudy 12000 ft
Windchill 32 °F
Dew Point 34 °F
Humidity 81%
Rainfall 0.00 in
Snow Depth Not available.
UV 0 out of 12
Pollen 1.60 out of 12
Air Quality Not available.
Flu Activity Sporadic
METAR KBAC 251315Z AUTO 30010KT 10SM BKN120 04/01 A3009 RMK AO2

More Conditions Fewer Conditions

10-Day Weather Forecast

Almanac

Astronomy

Oct. 25, 2014 Rise Set
Actual Time 8:03 AM CDT 6:27 PM CDT
Civil Twilight 7:32 AM CDT 6:58 PM CDT
Nautical Twilight 6:57 AM CDT 7:33 PM CDT
Astronomical Twilight 6:22 AM CDT 8:08 PM CDT
Moon 9:48 AM CDT 7:46 PM CDT
Length of Visible Light 11h 25m
Length of Day
10h 23m
Tomorrow will be 3m 6s shorter.
Waxing Crescent, 3% of the Moon is Illuminated
Today
Waxing Crescent
Oct 30
First Quarter
Nov 6
Full
Nov 14
Last Quarter
Nov 22
New

Today's Extremes

State Highs State Lows

Community

WunderPhotos

Upload Photos

1,764,829 photos uploaded!

Nearby

Snow Depth

Station Depth Elevation
No new snow has been reported.

Earthquake Activity

City Distance Mag. Time & Date
No recent earthquake activity has been reported nearby.
Minimum magnitude displayed is 2.5.

Coastal Water Temperatures

Place Temperature
No Stations Reporting

Nearby Weather Stations